Time;durP1;ratioP1;P1;durP2;ratioP2;P2;SDS_P1;SDS_P2;PMS_P1;PMS_P2;Temp;Humidity;BMP_temperature;BMP_pressure;BME280_temperature;BME280_humidity;BME280_pressure;Samples;Min_cycle;Max_cycle;Signal;HPM_P1;HPM_P2
2022/09/25 00:01:47;;;;;;;;;;;10.00;99.90;;;;;;5069972;28;19932;-79
2022/09/25 00:04:13;;;;;;;;;;;10.10;99.90;;;;;;5084724;28;19971;-79
2022/09/25 00:06:41;;;;;;;;;;;10.10;99.90;;;;;;5069030;28;20013;-79
2022/09/25 00:09:07;;;;;;;;;;;10.10;99.90;;;;;;5068764;28;20408;-79
2022/09/25 00:11:37;;;;;;;;;;;10.10;99.90;;;;;;5084002;28;19927;-82
2022/09/25 00:14:03;;;;;;;;;;;10.10;99.90;;;;;;5052890;28;19931;-79
2022/09/25 00:16:30;;;;;;;;;;;10.10;99.90;;;;;;5084764;28;20474;-79
2022/09/25 00:21:41;;;;;;;;;;;10.10;99.90;;;;;;5065987;28;20535;-80
2022/09/25 00:24:08;;;;;;;;;;;10.00;99.90;;;;;;5086094;28;19931;-79
2022/09/25 00:26:39;;;;;;;;;;;10.00;99.90;;;;;;5079168;28;19928;-79
2022/09/25 00:29:06;;;;;;;;;;;10.00;99.90;;;;;;5065263;28;19928;-82
2022/09/25 00:31:32;;;;;;;;;;;9.90;99.90;;;;;;5077483;28;20110;-80
2022/09/25 00:33:59;;;;;;;;;;;9.90;99.90;;;;;;5064489;28;19931;-82
2022/09/25 00:39:46;;;;;;;;;;;9.90;99.90;;;;;;5086997;28;19942;-80
2022/09/25 00:42:12;;;;;;;;;;;9.90;99.90;;;;;;5079492;28;19932;-84
2022/09/25 00:44:57;;;;;;;;;;;9.90;99.90;;;;;;5059393;28;19920;-82
2022/09/25 00:47:27;;;;;;;;;;;9.90;99.90;;;;;;5076158;28;19940;-85
2022/09/25 00:49:54;;;;;;;;;;;9.90;99.90;;;;;;5072671;28;20760;-89
2022/09/25 00:52:22;;;;;;;;;;;9.90;99.90;;;;;;5072172;28;19965;-88
2022/09/25 00:54:57;;;;;;;;;;;9.90;99.90;;;;;;5069812;28;19924;-85
2022/09/25 00:57:25;;;;;;;;;;;9.90;99.90;;;;;;5086389;28;19932;-90
2022/09/25 00:59:54;;;;;;;;;;;9.90;99.90;;;;;;5058019;28;20011;-89
2022/09/25 01:02:23;;;;;;;;;;;9.90;99.90;;;;;;5083124;28;19927;-82
2022/09/25 01:04:50;;;;;;;;;;;10.00;99.90;;;;;;5071101;28;19988;-87
2022/09/25 01:07:16;;;;;;;;;;;9.90;99.90;;;;;;5086795;28;19920;-83
2022/09/25 01:09:45;;;;;;;;;;;9.90;99.90;;;;;;5088171;28;20426;-88
2022/09/25 01:12:11;;;;;;;;;;;9.90;99.90;;;;;;5067740;28;19935;-85
2022/09/25 01:14:38;;;;;;;;;;;9.90;99.90;;;;;;5086920;28;19931;-86
2022/09/25 01:17:31;;;;;;;;;;;9.90;99.90;;;;;;5058261;28;20031;-84
2022/09/25 01:20:18;;;;;;;;;;;9.90;99.90;;;;;;5045045;28;19932;-83
2022/09/25 01:23:04;;;;;;;;;;;9.80;99.90;;;;;;5069865;28;20417;-82
2022/09/25 01:26:03;;;;;;;;;;;9.90;99.90;;;;;;5081366;28;19939;-86
2022/09/25 01:28:39;;;;;;;;;;;9.90;99.90;;;;;;5033240;28;19924;-81
2022/09/25 01:31:10;;;;;;;;;;;9.90;99.90;;;;;;5065517;28;19942;-90
2022/09/25 01:33:41;;;;;;;;;;;9.90;99.90;;;;;;5070729;28;19924;-86
2022/09/25 01:36:14;;;;;;;;;;;9.80;99.90;;;;;;5068675;28;19924;-88
2022/09/25 01:38:42;;;;;;;;;;;9.80;99.90;;;;;;5090136;28;19928;-79
2022/09/25 01:41:12;;;;;;;;;;;9.80;99.90;;;;;;5093590;28;19924;-81
2022/09/25 01:44:05;;;;;;;;;;;9.90;99.90;;;;;;5091306;28;19980;-80
2022/09/25 01:46:35;;;;;;;;;;;9.80;99.90;;;;;;5083202;28;19931;-78
2022/09/25 01:49:05;;;;;;;;;;;9.80;99.90;;;;;;5076980;28;20445;-78
2022/09/25 01:51:34;;;;;;;;;;;9.80;99.90;;;;;;5088044;28;20272;-79
2022/09/25 01:54:07;;;;;;;;;;;9.70;99.90;;;;;;5083351;28;20490;-79
2022/09/25 01:56:37;;;;;;;;;;;9.70;99.90;;;;;;5084050;28;20094;-80
2022/09/25 01:59:06;;;;;;;;;;;9.70;99.90;;;;;;5065917;28;20346;-78
2022/09/25 02:01:37;;;;;;;;;;;9.70;99.90;;;;;;5085420;28;19927;-78
2022/09/25 02:04:11;;;;;;;;;;;9.70;99.90;;;;;;5062987;28;20036;-81
2022/09/25 02:12:19;;;;;;;;;;;9.70;99.90;;;;;;5067543;28;20366;-79
2022/09/25 02:15:07;;;;;;;;;;;9.70;99.90;;;;;;5035692;28;19928;-78
2022/09/25 02:20:41;;;;;;;;;;;9.70;99.90;;;;;;5049800;28;19939;-78
2022/09/25 02:23:18;;;;;;;;;;;9.70;99.90;;;;;;5042041;28;20070;-78
2022/09/25 02:25:45;;;;;;;;;;;9.70;99.90;;;;;;5032506;28;19928;-81
2022/09/25 02:28:11;;;;;;;;;;;9.70;99.90;;;;;;5032927;28;20591;-80
2022/09/25 02:30:36;;;;;;;;;;;9.70;99.90;;;;;;5012621;28;20015;-81
2022/09/25 02:33:02;;;;;;;;;;;9.70;99.90;;;;;;5024769;28;19981;-80
2022/09/25 02:35:28;;;;;;;;;;;9.70;99.90;;;;;;5017162;28;20402;-80
2022/09/25 02:37:55;;;;;;;;;;;9.70;99.90;;;;;;5017661;28;19997;-80
2022/09/25 02:40:41;;;;;;;;;;;9.70;99.90;;;;;;5031559;28;20046;-80
2022/09/25 02:43:22;;;;;;;;;;;9.70;99.90;;;;;;5012334;28;19928;-80
2022/09/25 02:45:49;;;;;;;;;;;9.70;99.90;;;;;;5031402;28;19925;-80
2022/09/25 02:48:34;;;;;;;;;;;9.70;99.90;;;;;;5049611;28;19978;-80
2022/09/25 02:51:09;;;;;;;;;;;9.70;99.90;;;;;;5033689;28;19932;-82
2022/09/25 02:53:43;;;;;;;;;;;9.70;99.90;;;;;;5047295;28;19925;-81
2022/09/25 02:56:22;;;;;;;;;;;9.70;99.90;;;;;;5031048;28;19998;-80
2022/09/25 03:11:32;;;;;;;;;;;9.60;99.90;;;;;;5042689;28;19924;-80
2022/09/25 03:14:04;;;;;;;;;;;9.60;99.90;;;;;;5012709;28;19936;-80
2022/09/25 03:16:50;;;;;;;;;;;9.60;99.90;;;;;;5032713;28;19979;-82
2022/09/25 03:19:18;;;;;;;;;;;9.60;99.90;;;;;;5029081;28;19956;-81
2022/09/25 03:21:46;;;;;;;;;;;9.60;99.90;;;;;;5027522;28;19929;-80
2022/09/25 03:24:15;;;;;;;;;;;9.60;99.90;;;;;;5011077;28;19927;-80
2022/09/25 03:26:41;;;;;;;;;;;9.60;99.90;;;;;;5011418;28;20392;-80
2022/09/25 03:29:07;;;;;;;;;;;9.60;99.90;;;;;;5029056;28;20421;-80
2022/09/25 03:31:33;;;;;;;;;;;9.60;99.90;;;;;;5029644;28;19929;-80
2022/09/25 03:33:59;;;;;;;;;;;9.60;99.90;;;;;;5014963;28;20035;-81
2022/09/25 03:36:26;;;;;;;;;;;9.60;99.90;;;;;;5037598;28;20016;-81
2022/09/25 03:38:56;;;;;;;;;;;9.60;99.90;;;;;;5031378;28;20450;-81
2022/09/25 03:41:22;;;;;;;;;;;9.50;99.90;;;;;;5029069;28;19920;-82
2022/09/25 03:43:52;;;;;;;;;;;9.30;99.90;;;;;;5044270;28;20011;-81
2022/09/25 03:46:20;;;;;;;;;;;9.50;99.90;;;;;;5018399;28;20264;-81
2022/09/25 03:48:46;;;;;;;;;;;9.50;99.90;;;;;;5036534;28;19929;-81
2022/09/25 03:54:16;;;;;;;;;;;9.40;99.90;;;;;;5036027;28;19935;-80
2022/09/25 03:56:42;;;;;;;;;;;9.40;99.90;;;;;;5041383;28;20009;-81
2022/09/25 03:59:08;;;;;;;;;;;9.40;99.90;;;;;;5013943;28;19959;-80
2022/09/25 04:01:37;;;;;;;;;;;9.50;99.90;;;;;;5015636;28;19921;-80
2022/09/25 04:04:05;;;;;;;;;;;9.50;99.90;;;;;;5033962;28;19931;-81
2022/09/25 04:07:09;;;;;;;;;;;9.50;99.90;;;;;;4999519;28;19925;-81
2022/09/25 04:09:35;;;;;;;;;;;9.50;99.90;;;;;;5014750;28;19924;-80
2022/09/25 04:12:01;;;;;;;;;;;9.50;99.90;;;;;;5029247;28;20065;-79
2022/09/25 04:14:27;;;;;;;;;;;9.50;99.90;;;;;;5031224;28;19924;-80
2022/09/25 04:16:59;;;;;;;;;;;9.50;99.90;;;;;;5028637;28;19964;-80
2022/09/25 04:19:24;;;;;;;;;;;9.50;99.90;;;;;;5046532;28;20366;-79
2022/09/25 04:21:57;;;;;;;;;;;9.50;99.90;;;;;;5021067;28;20338;-80
2022/09/25 04:27:08;;;;;;;;;;;9.50;99.90;;;;;;5041311;28;19944;-80
2022/09/25 04:29:36;;;;;;;;;;;9.50;99.90;;;;;;5015420;28;20296;-80
2022/09/25 04:34:46;;;;;;;;;;;9.60;99.90;;;;;;5031050;28;20342;-80
2022/09/25 04:37:12;;;;;;;;;;;9.60;99.90;;;;;;5031189;28;20030;-80
2022/09/25 04:39:39;;;;;;;;;;;9.60;99.90;;;;;;5047474;28;20338;-80
2022/09/25 04:42:05;;;;;;;;;;;9.60;99.90;;;;;;5030553;28;19955;-80
2022/09/25 04:44:31;;;;;;;;;;;9.60;99.90;;;;;;5027177;28;19924;-80
2022/09/25 04:46:56;;;;;;;;;;;9.50;99.90;;;;;;5009202;28;19925;-81
2022/09/25 04:49:24;;;;;;;;;;;9.50;99.90;;;;;;5030386;28;19931;-79
2022/09/25 04:51:51;;;;;;;;;;;9.50;99.90;;;;;;5015091;28;20743;-79
2022/09/25 04:54:16;;;;;;;;;;;9.50;99.90;;;;;;5028747;28;19924;-79
2022/09/25 04:56:42;;;;;;;;;;;9.50;99.90;;;;;;5046322;28;20512;-83
2022/09/25 04:59:10;;;;;;;;;;;9.50;99.90;;;;;;5047448;28;19924;-80
2022/09/25 05:01:36;;;;;;;;;;;9.50;99.90;;;;;;5047005;28;19951;-80
2022/09/25 05:04:02;;;;;;;;;;;9.50;99.90;;;;;;5031545;28;20375;-79
2022/09/25 05:06:28;;;;;;;;;;;9.50;99.90;;;;;;5017127;28;19925;-79
2022/09/25 05:09:01;;;;;;;;;;;9.50;99.90;;;;;;5034628;28;20074;-80
2022/09/25 05:11:27;;;;;;;;;;;9.50;99.90;;;;;;5038339;28;19964;-80
2022/09/25 05:13:53;;;;;;;;;;;9.50;99.90;;;;;;5034354;28;20015;-79
2022/09/25 05:16:19;;;;;;;;;;;9.50;99.90;;;;;;5034951;28;20074;-81
2022/09/25 05:18:45;;;;;;;;;;;9.50;99.90;;;;;;5035408;28;19935;-80
2022/09/25 05:21:11;;;;;;;;;;;9.40;99.90;;;;;;5051408;28;19928;-80
2022/09/25 05:23:37;;;;;;;;;;;9.40;99.90;;;;;;5023327;28;19936;-80
2022/09/25 05:26:02;;;;;;;;;;;9.40;99.90;;;;;;5018661;28;19978;-81
2022/09/25 05:28:29;;;;;;;;;;;9.40;99.90;;;;;;5016991;28;20003;-80
2022/09/25 05:30:57;;;;;;;;;;;9.40;99.90;;;;;;5031923;28;19928;-79
2022/09/25 05:33:23;;;;;;;;;;;9.40;99.90;;;;;;5030718;28;20329;-82
2022/09/25 05:35:49;;;;;;;;;;;9.40;99.90;;;;;;5029742;28;19924;-80
2022/09/25 05:38:15;;;;;;;;;;;9.40;99.90;;;;;;5026829;28;20272;-81
2022/09/25 05:40:41;;;;;;;;;;;9.30;99.90;;;;;;5050109;28;19990;-80
2022/09/25 05:43:06;;;;;;;;;;;9.30;99.90;;;;;;5014140;28;20449;-81
2022/09/25 05:45:33;;;;;;;;;;;9.30;99.90;;;;;;5013299;28;20306;-79
2022/09/25 05:48:01;;;;;;;;;;;9.40;99.90;;;;;;5033480;28;19982;-80
2022/09/25 05:50:27;;;;;;;;;;;9.40;99.90;;;;;;5030868;28;20269;-80
2022/09/25 05:52:56;;;;;;;;;;;9.40;99.90;;;;;;5043167;28;19928;-82
2022/09/25 05:55:22;;;;;;;;;;;9.40;99.90;;;;;;5032892;28;19932;-79
2022/09/25 05:57:48;;;;;;;;;;;9.50;99.90;;;;;;5023717;28;19932;-80
2022/09/25 06:00:15;;;;;;;;;;;9.50;99.90;;;;;;5046229;28;19998;-80
2022/09/25 06:02:41;;;;;;;;;;;9.50;99.90;;;;;;5027604;28;19925;-80
2022/09/25 06:05:07;;;;;;;;;;;9.50;99.90;;;;;;5014469;28;20418;-80
2022/09/25 06:07:34;;;;;;;;;;;9.60;99.90;;;;;;5030244;28;20398;-79
2022/09/25 06:09:59;;;;;;;;;;;9.60;99.90;;;;;;5042542;28;20003;-80
2022/09/25 06:12:27;;;;;;;;;;;9.70;99.90;;;;;;5026978;28;20020;-80
2022/09/25 06:14:55;;;;;;;;;;;9.70;99.90;;;;;;5050688;28;19924;-79
2022/09/25 06:17:22;;;;;;;;;;;9.70;99.90;;;;;;5032905;28;20359;-79
2022/09/25 06:19:49;;;;;;;;;;;9.80;99.90;;;;;;5033034;28;20382;-79
2022/09/25 06:22:15;;;;;;;;;;;9.80;99.90;;;;;;5027340;28;19925;-81
2022/09/25 06:24:41;;;;;;;;;;;9.80;99.90;;;;;;5044897;28;20024;-79
2022/09/25 06:27:07;;;;;;;;;;;9.90;99.90;;;;;;5044398;28;20430;-79
2022/09/25 06:29:33;;;;;;;;;;;9.90;99.90;;;;;;5039299;28;19933;-81
2022/09/25 06:31:59;;;;;;;;;;;10.00;99.90;;;;;;5046120;28;19935;-79
2022/09/25 06:34:26;;;;;;;;;;;10.00;99.90;;;;;;5028642;28;20027;-79
2022/09/25 06:36:53;;;;;;;;;;;10.00;99.90;;;;;;5031860;28;20371;-79
2022/09/25 06:39:19;;;;;;;;;;;10.10;99.90;;;;;;5048689;28;19929;-80
2022/09/25 06:41:45;;;;;;;;;;;10.10;99.90;;;;;;5031456;28;20561;-80
2022/09/25 06:44:11;;;;;;;;;;;10.10;99.90;;;;;;5025958;28;19999;-79
2022/09/25 06:46:38;;;;;;;;;;;10.10;99.90;;;;;;5035501;28;20330;-79
2022/09/25 06:49:05;;;;;;;;;;;10.20;99.90;;;;;;5047780;28;19931;-80
2022/09/25 06:51:39;;;;;;;;;;;10.20;99.90;;;;;;5034011;28;19979;-80
2022/09/25 06:54:05;;;;;;;;;;;10.20;99.90;;;;;;5031620;28;20011;-80
2022/09/25 06:56:31;;;;;;;;;;;10.30;99.90;;;;;;5028710;28;19924;-80
2022/09/25 06:58:57;;;;;;;;;;;10.40;99.90;;;;;;5042082;28;19978;-80
2022/09/25 07:01:22;;;;;;;;;;;10.50;99.90;;;;;;5032033;28;19925;-81
2022/09/25 07:03:48;;;;;;;;;;;10.60;99.90;;;;;;5029113;28;20412;-82
2022/09/25 07:06:16;;;;;;;;;;;10.70;99.90;;;;;;5018099;28;19975;-80
2022/09/25 07:08:43;;;;;;;;;;;10.80;99.90;;;;;;5019753;28;19925;-80
2022/09/25 07:11:10;;;;;;;;;;;11.00;99.90;;;;;;5043301;28;19925;-80
2022/09/25 07:13:36;;;;;;;;;;;11.10;99.90;;;;;;5027959;28;19967;-80
2022/09/25 07:16:03;;;;;;;;;;;11.30;99.90;;;;;;5033350;28;19967;-80
2022/09/25 07:18:30;;;;;;;;;;;11.40;99.90;;;;;;5047148;28;20405;-81
2022/09/25 07:21:03;;;;;;;;;;;11.60;99.90;;;;;;5044998;28;19928;-81
2022/09/25 07:23:30;;;;;;;;;;;11.90;99.90;;;;;;5054227;28;19925;-81
2022/09/25 07:26:02;;;;;;;;;;;12.60;99.90;;;;;;5043856;28;20015;-81
2022/09/25 07:28:28;;;;;;;;;;;13.30;99.90;;;;;;5032017;28;19931;-82
2022/09/25 07:30:54;;;;;;;;;;;;;;;;;;5048167;28;20023;-82
2022/09/25 07:33:23;;;;;;;;;;;13.50;99.90;;;;;;3253183;22;20866;-80
2022/09/25 07:35:51;;;;;;;;;;;13.40;99.90;;;;;;5044916;28;19932;-82
2022/09/25 07:38:17;;;;;;;;;;;13.40;99.90;;;;;;5043794;28;19924;-83
2022/09/25 07:40:43;;;;;;;;;;;13.60;99.90;;;;;;5031995;28;19928;-82
2022/09/25 07:43:09;;;;;;;;;;;13.50;99.90;;;;;;5031181;28;20115;-82
2022/09/25 07:45:35;;;;;;;;;;;13.60;99.90;;;;;;5017643;28;19948;-82
2022/09/25 07:48:02;;;;;;;;;;;13.70;99.90;;;;;;5015098;28;20401;-83
2022/09/25 07:50:31;;;;;;;;;;;13.70;99.90;;;;;;5032220;28;19936;-83
2022/09/25 07:52:57;;;;;;;;;;;13.90;99.90;;;;;;5044376;28;20004;-83
2022/09/25 07:55:23;;;;;;;;;;;14.10;99.90;;;;;;5011145;28;19939;-81
2022/09/25 07:57:50;;;;;;;;;;;14.30;99.90;;;;;;5030465;28;20281;-81
2022/09/25 08:00:16;;;;;;;;;;;14.40;99.90;;;;;;5037826;28;19924;-84
2022/09/25 08:02:42;;;;;;;;;;;14.50;99.90;;;;;;5068729;28;19942;-84
2022/09/25 08:05:09;;;;;;;;;;;14.60;99.90;;;;;;5048083;28;19924;-83
2022/09/25 08:07:34;;;;;;;;;;;14.70;99.90;;;;;;5069383;28;19935;-81
2022/09/25 08:10:00;;;;;;;;;;;14.80;99.90;;;;;;5080613;28;20405;-82
2022/09/25 08:12:26;;;;;;;;;;;15.10;99.90;;;;;;5050493;28;20295;-83
2022/09/25 08:14:53;;;;;;;;;;;15.50;99.90;;;;;;5068224;28;19935;-84
2022/09/25 08:17:19;;;;;;;;;;;16.00;99.90;;;;;;5056336;28;19924;-83
2022/09/25 08:19:47;;;;;;;;;;;;;;;;;;5050351;28;20471;-83
2022/09/25 08:22:13;;;;;;;;;;;16.80;99.90;;;;;;5061726;28;19924;-83
2022/09/25 08:24:39;;;;;;;;;;;16.90;99.90;;;;;;5033913;28;19931;-83
2022/09/25 08:27:06;;;;;;;;;;;17.00;99.90;;;;;;5050355;28;19928;-79
2022/09/25 08:29:32;;;;;;;;;;;17.10;99.90;;;;;;5050958;28;20371;-82
2022/09/25 08:31:58;;;;;;;;;;;17.00;99.90;;;;;;5049797;28;19971;-82
2022/09/25 08:34:24;;;;;;;;;;;16.90;99.90;;;;;;5042663;28;20792;-82
2022/09/25 08:36:49;;;;;;;;;;;16.90;99.90;;;;;;5049438;28;19933;-82
2022/09/25 08:39:16;;;;;;;;;;;16.80;99.90;;;;;;5009786;28;19984;-83
2022/09/25 08:41:50;;;;;;;;;;;16.80;99.90;;;;;;5072688;28;19966;-82
2022/09/25 08:44:22;;;;;;;;;;;16.70;99.90;;;;;;5048049;28;20011;-84
2022/09/25 08:49:37;;;;;;;;;;;16.00;99.90;;;;;;5047424;28;19924;-80
2022/09/25 08:52:06;;;;;;;;;;;15.60;99.90;;;;;;5043011;28;20017;-85
2022/09/25 08:54:33;;;;;;;;;;;15.40;99.90;;;;;;5025786;28;20248;-83
2022/09/25 08:57:00;;;;;;;;;;;15.20;99.90;;;;;;5043494;28;19931;-79
2022/09/25 08:59:29;;;;;;;;;;;15.30;99.90;;;;;;5047717;28;20310;-82
2022/09/25 09:01:56;;;;;;;;;;;14.80;99.90;;;;;;5054759;28;19928;-81
2022/09/25 09:04:34;;;;;;;;;;;14.80;99.90;;;;;;5044616;28;20028;-81
2022/09/25 09:07:06;;;;;;;;;;;14.90;99.90;;;;;;5029447;28;19979;-81
2022/09/25 09:09:40;;;;;;;;;;;14.90;99.90;;;;;;5047589;28;19924;-80
2022/09/25 09:12:14;;;;;;;;;;;14.80;99.90;;;;;;5029851;28;20367;-81
2022/09/25 09:14:45;;;;;;;;;;;14.80;99.90;;;;;;5046931;28;19983;-83
2022/09/25 09:17:16;;;;;;;;;;;14.60;99.90;;;;;;5032452;28;20088;-82
2022/09/25 09:19:47;;;;;;;;;;;14.40;99.90;;;;;;5045415;28;19924;-82
2022/09/25 09:22:13;;;;;;;;;;;14.20;99.90;;;;;;5051773;28;20317;-81
2022/09/25 09:24:53;;;;;;;;;;;14.00;99.90;;;;;;5031301;28;20012;-80
2022/09/25 09:27:19;;;;;;;;;;;13.90;99.90;;;;;;5027718;28;19982;-81
2022/09/25 09:29:52;;;;;;;;;;;13.80;99.90;;;;;;5030813;28;20191;-79
2022/09/25 09:32:30;;;;;;;;;;;13.70;99.90;;;;;;5045249;28;19962;-77
2022/09/25 09:35:03;;;;;;;;;;;13.60;99.90;;;;;;5047218;28;19924;-79
2022/09/25 09:37:54;;;;;;;;;;;13.40;99.90;;;;;;5039675;28;20141;-81
2022/09/25 09:40:19;;;;;;;;;;;13.20;99.90;;;;;;5031922;28;19934;-80
2022/09/25 09:43:02;;;;;;;;;;;13.00;99.90;;;;;;5033098;28;20314;-78
2022/09/25 09:45:43;;;;;;;;;;;12.90;99.90;;;;;;5028213;28;19925;-79
2022/09/25 09:48:27;;;;;;;;;;;12.90;99.90;;;;;;5019693;28;19925;-82
2022/09/25 09:51:02;;;;;;;;;;;12.60;99.90;;;;;;5022141;28;20396;-81
2022/09/25 09:53:36;;;;;;;;;;;12.80;99.90;;;;;;5029203;28;20405;-81
2022/09/25 09:56:12;;;;;;;;;;;12.80;99.90;;;;;;5051496;28;19936;-82
2022/09/25 09:59:11;;;;;;;;;;;12.90;99.90;;;;;;5035714;28;19932;-82
2022/09/25 10:01:38;;;;;;;;;;;12.90;99.90;;;;;;4995714;28;19932;-81
2022/09/25 10:04:07;;;;;;;;;;;13.00;99.90;;;;;;5033280;28;19924;-82
2022/09/25 10:06:35;;;;;;;;;;;13.20;99.90;;;;;;5050304;28;19924;-82
2022/09/25 10:09:00;;;;;;;;;;;13.40;99.90;;;;;;5027666;28;19928;-83
2022/09/25 10:11:27;;;;;;;;;;;13.60;99.90;;;;;;5027021;28;19931;-82
2022/09/25 10:13:58;;;;;;;;;;;13.70;99.90;;;;;;5041733;28;19925;-83
2022/09/25 10:16:25;;;;;;;;;;;13.80;99.90;;;;;;5018818;28;20336;-81
2022/09/25 10:18:59;;;;;;;;;;;13.90;99.90;;;;;;5050578;28;20438;-83
2022/09/25 10:21:49;;;;;;;;;;;14.00;99.90;;;;;;5034211;28;20298;-83
2022/09/25 10:24:34;;;;;;;;;;;14.30;99.90;;;;;;5026785;28;19925;-83
2022/09/25 10:27:20;;;;;;;;;;;15.00;99.90;;;;;;5032598;28;20520;-83
2022/09/25 10:29:59;;;;;;;;;;;15.00;99.90;;;;;;5029180;28;19979;-83
2022/09/25 10:32:25;;;;;;;;;;;15.30;99.90;;;;;;5044707;28;19932;-82
2022/09/25 10:34:52;;;;;;;;;;;15.40;99.90;;;;;;5030706;28;19924;-82
2022/09/25 10:37:19;;;;;;;;;;;15.50;99.90;;;;;;5029437;28;19928;-81
2022/09/25 10:39:59;;;;;;;;;;;15.50;99.90;;;;;;5045791;28;19948;-80
2022/09/25 10:42:38;;;;;;;;;;;15.80;99.90;;;;;;5045116;28;20333;-80
2022/09/25 10:45:26;;;;;;;;;;;15.60;99.90;;;;;;5040763;28;20019;-82
2022/09/25 10:50:36;;;;;;;;;;;15.50;99.90;;;;;;5045735;28;19928;-83
2022/09/25 10:53:04;;;;;;;;;;;15.40;99.90;;;;;;5029468;28;19932;-79
2022/09/25 10:55:50;;;;;;;;;;;15.30;99.90;;;;;;5048836;28;20457;-82
2022/09/25 10:58:21;;;;;;;;;;;15.40;99.90;;;;;;5016771;28;20067;-80
2022/09/25 11:00:50;;;;;;;;;;;15.30;99.90;;;;;;5044902;28;19925;-81
2022/09/25 11:03:39;;;;;;;;;;;15.20;99.90;;;;;;5035464;28;19931;-80
2022/09/25 11:06:19;;;;;;;;;;;15.20;99.90;;;;;;5048964;28;20058;-81
2022/09/25 11:08:54;;;;;;;;;;;15.10;99.90;;;;;;5051132;28;19931;-83
2022/09/25 11:11:26;;;;;;;;;;;15.10;99.90;;;;;;5028100;28;19933;-84
2022/09/25 11:13:54;;;;;;;;;;;15.10;99.90;;;;;;5024359;28;20346;-83
2022/09/25 11:16:20;;;;;;;;;;;15.20;99.90;;;;;;5049039;28;19977;-82
2022/09/25 11:18:48;;;;;;;;;;;15.30;99.90;;;;;;5034290;28;20450;-84
2022/09/25 11:21:17;;;;;;;;;;;15.30;99.90;;;;;;5049823;28;20272;-83
2022/09/25 11:24:04;;;;;;;;;;;15.40;99.90;;;;;;5031625;28;19935;-84
2022/09/25 11:26:33;;;;;;;;;;;15.50;99.90;;;;;;5031396;28;19973;-82
2022/09/25 11:29:06;;;;;;;;;;;15.80;99.90;;;;;;5031269;28;19971;-84
2022/09/25 11:31:32;;;;;;;;;;;;;;;;;;5048441;28;19932;-83
2022/09/25 11:33:58;;;;;;;;;;;;;;;;;;5049737;28;19931;-88
2022/09/25 11:36:28;;;;;;;;;;;16.00;99.90;;;;;;5049394;28;20855;-80
2022/09/25 11:41:44;;;;;;;;;;;15.80;99.90;;;;;;5048194;28;19925;-80
2022/09/25 11:44:09;;;;;;;;;;;15.60;99.90;;;;;;5049511;28;19928;-81
2022/09/25 11:47:04;;;;;;;;;;;15.40;99.90;;;;;;5048877;28;20333;-82
2022/09/25 11:49:33;;;;;;;;;;;15.20;99.90;;;;;;5013215;28;19928;-81
2022/09/25 11:52:01;;;;;;;;;;;15.20;99.90;;;;;;5028468;28;19976;-81
2022/09/25 11:54:41;;;;;;;;;;;15.30;99.90;;;;;;5046283;28;19932;-83
2022/09/25 11:57:19;;;;;;;;;;;15.40;99.90;;;;;;5040798;28;20070;-83
2022/09/25 12:00:02;;;;;;;;;;;15.50;99.90;;;;;;5032201;28;19999;-81
2022/09/25 12:03:07;;;;;;;;;;;15.50;99.90;;;;;;5047517;28;19924;-79
2022/09/25 12:05:59;;;;;;;;;;;15.50;99.90;;;;;;4973283;28;19929;-80
2022/09/25 12:08:25;;;;;;;;;;;15.40;99.90;;;;;;4955187;28;19929;-80
2022/09/25 12:11:06;;;;;;;;;;;15.30;99.90;;;;;;5005320;28;19925;-83
2022/09/25 12:13:32;;;;;;;;;;;15.20;99.90;;;;;;5027238;28;20169;-83
2022/09/25 12:16:12;;;;;;;;;;;15.10;99.90;;;;;;5032613;28;20607;-86
2022/09/25 12:18:51;;;;;;;;;;;15.00;99.90;;;;;;5046990;28;19932;-83
2022/09/25 12:21:28;;;;;;;;;;;15.00;99.90;;;;;;5044190;28;19924;-80
2022/09/25 12:24:09;;;;;;;;;;;14.90;99.90;;;;;;5027844;28;20283;-81
2022/09/25 12:26:35;;;;;;;;;;;14.90;99.90;;;;;;5048009;28;19987;-82
2022/09/25 12:29:24;;;;;;;;;;;14.80;99.90;;;;;;5032005;28;20443;-82
2022/09/25 12:32:03;;;;;;;;;;;14.80;99.90;;;;;;5043182;28;20159;-82
2022/09/25 12:34:31;;;;;;;;;;;14.80;99.90;;;;;;5035875;28;19931;-83
2022/09/25 12:36:57;;;;;;;;;;;14.80;99.90;;;;;;5065282;28;20567;-83
2022/09/25 12:39:31;;;;;;;;;;;14.80;99.90;;;;;;5050171;28;19928;-84
2022/09/25 12:42:16;;;;;;;;;;;14.80;99.90;;;;;;5051261;28;20334;-83
2022/09/25 12:44:51;;;;;;;;;;;14.80;99.90;;;;;;5066836;28;19935;-82
2022/09/25 12:47:22;;;;;;;;;;;14.80;99.90;;;;;;5050991;28;20007;-84
2022/09/25 12:50:04;;;;;;;;;;;14.80;99.90;;;;;;5049465;28;19924;-82
2022/09/25 12:52:50;;;;;;;;;;;14.90;99.90;;;;;;5081701;28;20348;-83
2022/09/25 12:55:36;;;;;;;;;;;14.90;99.90;;;;;;5081373;22;20192;-80
2022/09/25 12:58:09;;;;;;;;;;;15.00;99.90;;;;;;5049708;28;20404;-80
2022/09/25 13:00:40;;;;;;;;;;;15.00;99.90;;;;;;5066009;28;20302;-79
2022/09/25 13:03:29;;;;;;;;;;;14.90;99.90;;;;;;5048660;28;19925;-80
2022/09/25 13:06:09;;;;;;;;;;;14.90;99.90;;;;;;5088897;28;19943;-83
2022/09/25 13:08:38;;;;;;;;;;;15.00;99.90;;;;;;5079017;28;19930;-80
2022/09/25 13:11:03;;;;;;;;;;;15.00;99.90;;;;;;5081354;28;19924;-81
2022/09/25 13:13:35;;;;;;;;;;;15.10;99.90;;;;;;5067578;28;19924;-82
2022/09/25 13:16:02;;;;;;;;;;;15.00;99.90;;;;;;5047372;28;20416;-80
2022/09/25 13:18:29;;;;;;;;;;;15.00;99.90;;;;;;5071199;28;19931;-82
2022/09/25 13:21:22;;;;;;;;;;;15.00;99.90;;;;;;5054483;28;20595;-81
2022/09/25 13:24:07;;;;;;;;;;;15.00;99.90;;;;;;5054635;28;19932;-81
2022/09/25 13:26:42;;;;;;;;;;;15.00;99.90;;;;;;5070613;28;19928;-80
2022/09/25 13:29:28;;;;;;;;;;;15.00;99.90;;;;;;5083068;28;20020;-82
2022/09/25 13:32:05;;;;;;;;;;;15.00;99.90;;;;;;5090751;28;19935;-81
2022/09/25 13:34:39;;;;;;;;;;;15.00;99.90;;;;;;5137348;23;20204;-81
2022/09/25 13:37:06;;;;;;;;;;;15.00;99.90;;;;;;5054531;28;20006;-82
2022/09/25 13:42:21;;;;;;;;;;;15.20;99.90;;;;;;5056079;28;19950;-80
2022/09/25 13:45:06;;;;;;;;;;;15.20;99.90;;;;;;5043135;28;19931;-84
2022/09/25 13:47:41;;;;;;;;;;;15.30;99.90;;;;;;5057290;28;19976;-81
2022/09/25 13:50:26;;;;;;;;;;;15.40;99.90;;;;;;5055722;28;19924;-82
2022/09/25 13:55:41;;;;;;;;;;;15.30;99.90;;;;;;5143185;22;19925;-81
2022/09/25 13:58:37;;;;;;;;;;;15.20;99.90;;;;;;5035617;28;20110;-83
2022/09/25 14:01:09;;;;;;;;;;;15.10;99.90;;;;;;4979626;28;19930;-84
2022/09/25 14:03:35;;;;;;;;;;;15.20;99.90;;;;;;5033341;28;19924;-83
2022/09/25 14:06:03;;;;;;;;;;;15.10;99.90;;;;;;5055603;28;19928;-86
2022/09/25 14:08:31;;;;;;;;;;;14.80;99.90;;;;;;5055615;28;19928;-81
2022/09/25 14:10:59;;;;;;;;;;;14.90;99.90;;;;;;5049361;28;19925;-81
2022/09/25 14:13:26;;;;;;;;;;;14.80;99.90;;;;;;5052952;28;19928;-84
2022/09/25 14:15:55;;;;;;;;;;;14.70;99.90;;;;;;5037729;28;19927;-83
2022/09/25 14:18:24;;;;;;;;;;;14.60;99.90;;;;;;5051231;28;19933;-82
2022/09/25 14:20:51;;;;;;;;;;;14.50;99.90;;;;;;5032757;28;20012;-86
2022/09/25 14:23:19;;;;;;;;;;;14.40;99.90;;;;;;5030526;28;19987;-82
2022/09/25 14:25:46;;;;;;;;;;;14.40;99.90;;;;;;5041519;28;20233;-81
2022/09/25 14:28:20;;;;;;;;;;;14.50;99.90;;;;;;5042623;28;20002;-81
2022/09/25 14:30:51;;;;;;;;;;;14.50;99.90;;;;;;5039384;28;19928;-82
2022/09/25 14:33:27;;;;;;;;;;;14.50;99.90;;;;;;5057477;28;19921;-81
2022/09/25 14:35:58;;;;;;;;;;;14.50;99.90;;;;;;5060627;28;19933;-80
2022/09/25 14:38:53;;;;;;;;;;;14.60;99.90;;;;;;5043232;28;19963;-81
2022/09/25 14:41:31;;;;;;;;;;;14.60;99.90;;;;;;5057015;28;19947;-82
2022/09/25 14:44:01;;;;;;;;;;;14.60;99.90;;;;;;5048050;28;19925;-81
2022/09/25 14:46:26;;;;;;;;;;;14.60;99.90;;;;;;5034718;28;20019;-83
2022/09/25 14:48:53;;;;;;;;;;;14.50;99.90;;;;;;5050123;28;20094;-81
2022/09/25 14:51:23;;;;;;;;;;;14.50;99.90;;;;;;5045191;28;20175;-83
2022/09/25 14:53:56;;;;;;;;;;;14.50;99.90;;;;;;5051704;28;19929;-83
2022/09/25 14:56:23;;;;;;;;;;;14.60;99.90;;;;;;5035957;28;20009;-82
2022/09/25 14:58:56;;;;;;;;;;;14.70;99.90;;;;;;5035236;28;20019;-83
2022/09/25 15:01:25;;;;;;;;;;;14.70;99.90;;;;;;5050760;28;20326;-86
2022/09/25 15:03:52;;;;;;;;;;;14.70;99.90;;;;;;5053416;28;19925;-82
2022/09/25 15:06:28;;;;;;;;;;;14.70;99.90;;;;;;5016396;28;19930;-81
2022/09/25 15:08:54;;;;;;;;;;;14.80;99.90;;;;;;5053370;28;19974;-81
2022/09/25 15:11:24;;;;;;;;;;;14.80;99.90;;;;;;5026062;28;19928;-83
2022/09/25 15:13:50;;;;;;;;;;;14.80;99.90;;;;;;5048305;28;19935;-83
2022/09/25 15:19:19;;;;;;;;;;;14.70;99.90;;;;;;5045212;28;19936;-82
2022/09/25 15:21:45;;;;;;;;;;;14.70;99.90;;;;;;5032515;28;19928;-82
2022/09/25 15:24:13;;;;;;;;;;;14.70;99.90;;;;;;5050592;28;19924;-81
2022/09/25 15:26:44;;;;;;;;;;;14.70;99.90;;;;;;5048571;28;19973;-81
2022/09/25 15:29:16;;;;;;;;;;;14.70;99.90;;;;;;5033765;28;19994;-81
2022/09/25 15:31:49;;;;;;;;;;;14.30;99.90;;;;;;5022616;28;19969;-81
2022/09/25 15:34:22;;;;;;;;;;;14.50;99.90;;;;;;5028512;28;19954;-81
2022/09/25 15:36:49;;;;;;;;;;;14.50;99.90;;;;;;5028715;28;20326;-81
2022/09/25 15:39:16;;;;;;;;;;;14.50;99.90;;;;;;5013807;28;20018;-82